Jarreau, LA (70749)

7:44 AM CDT on July 27, 2016 (GMT -0500)
Lake View Cottage | | Change Station

Elev 10 ft 30.65 °N, 91.48 °W | Updated 19 minutes ago

Overcast
Overcast
75.6 °F
Feels Like 75 °F
N
2.9
Wind Variable Wind from SSE
Gusts 7.0 mph

Today
High -- | Low -- °F
--% Chance of Precip.
Yesterday
High -- | Low -- °F
Precip. -- in
Pressure 30.00 in
Visibility 10.0 miles
Clouds Mostly Cloudy 1000 ft
Overcast 2300 ft
Heat Index 75 °F
Dew Point 73 °F
Humidity 93%
Rainfall 0.09 in
Snow Depth Not available.
6:20 AM 8:03 PM
Last Quarter, 43% visible
METAR KHZR 271235Z AUTO 20004KT 10SM BKN010 OVC023 24/22 A3000 RMK AO2 LTG DSNT E T02350223
Pressure 30.00 in
Visibility 10.0 miles
Clouds Mostly Cloudy 1000 ft
Overcast 2300 ft
Heat Index 75 °F
Dew Point 73 °F
Humidity 93%
Rainfall 0.09 in
Snow Depth Not available.
6:20 AM 8:03 PM
Last Quarter, 43% visible
METAR KHZR 271235Z AUTO 20004KT 10SM BKN010 OVC023 24/22 A3000 RMK AO2 LTG DSNT E T02350223

10-Day Weather Forecast

Almanac

Astronomy

Jul. 27, 2016 Rise Set
Actual Time
Civil Twilight
Nautical Twilight
Astronomical Twilight
Moon
Length of Visible Light
Length of Day
Tomorrow will be .
, % of the Moon is Illuminated

Today's Extremes

State Highs State Lows

Community

WunderPhotos

Upload Photos

1,927,841 photos uploaded!

WunderBlog® & News

Nearby

Air Quality

  Air Quality AQ Index Pollutant
Not available.

Snow Depth

Station Depth Elevation

Earthquake Activity

City Distance Mag. Time & Date
Minimum magnitude displayed is 2.5.

Coastal Water Temperatures

Place Temperature

Stations

Nearby Weather Stations

Station Location Temp. Windchill Dew Point Humidity Wind Precip. Elev Updated Type
                   

Watches & Warnings

There are currently no watches in effect.